This is the latest recevied weather packets stored in our database for station/object OK2CME-6. If no packets are shown the sender has not sent any weather packets the latest 10 day(s).
| Time | Temp. | Humidity | Pressure | Rain* | Wind** | Luminosity | Snow |
|---|---|---|---|---|---|---|---|
| 1777623314 | 12.78° C | 52% | 1031.1 hPa | 0 mm | - | 406 W/m² | - |
| 1777622114 | 12.22° C | 53% | 1030.8 hPa | 0 mm | - | 283 W/m² | - |
| 1777620914 | 12.22° C | 52% | 1030.7 hPa | 0 mm | - | 290 W/m² | - |
| 1777619714 | 12.22° C | 54% | 1030.4 hPa | 0 mm | - | 349 W/m² | - |
| 1777618514 | 11.67° C | 54% | 1030.5 hPa | 0 mm | - | 301 W/m² | - |
| 1777616199 | 10° C | 57% | 1030.4 hPa | 0 mm | - | 126 W/m² | - |
| 1777614999 | 10° C | 57% | 1030.3 hPa | 0 mm | - | 185 W/m² | - |
| 1777613799 | 8.89° C | 59% | 1030.4 hPa | 0 mm | - | 112 W/m² | - |
| 1777612599 | 8.33° C | 59% | 1030.3 hPa | 0 mm | - | 49 W/m² | - |
| 1777611399 | 7.78° C | 59% | 1030.3 hPa | 0 mm | - | 36 W/m² | - |
| 1777610199 | 7.78° C | 59% | 1030.3 hPa | 0 mm | - | 20 W/m² | - |
| 1777608999 | 7.78° C | 60% | 1030.4 hPa | 0 mm | - | 7 W/m² | - |
| 1777607799 | 7.22° C | 60% | 1030.2 hPa | 0 mm | - | 2 W/m² | - |
| 1777606599 | 6.67° C | 63% | 1030.3 hPa | 0 mm | - | 0 W/m² | - |
| 1777605399 | 6.67° C | 63% | 1030.3 hPa | 0 mm | - | 0 W/m² | - |
| 1777604199 | 6.11° C | 65% | 1030.5 hPa | 0 mm | - | 0 W/m² | - |
| 1777602999 | 5.56° C | 65% | 1030.4 hPa | 0 mm | - | 0 W/m² | - |
| 1777601799 | 5.56° C | 65% | 1030.6 hPa | 0 mm | - | 0 W/m² | - |
| 1777600599 | 5.56° C | 63% | 1030.8 hPa | 0 mm | - | 0 W/m² | - |
| 1777599399 | 5.56° C | 62% | 1030.8 hPa | 0 mm | - | 0 W/m² | - |
| 1777598199 | 6.11° C | 61% | 1030.8 hPa | 0 mm | - | 0 W/m² | - |
| 1777596999 | 5.56° C | 62% | 1030.9 hPa | 0 mm | - | 0 W/m² | - |
| 1777595799 | 5.56° C | 62% | 1030.5 hPa | 0 mm | - | 0 W/m² | - |
| 1777594599 | 5.56° C | 61% | 1030.9 hPa | 0 mm | - | 0 W/m² | - |
| 1777593399 | 5.56° C | 60% | 1030.8 hPa | 0 mm | - | 0 W/m² | - |
* Rain latest hour (hover to see other rain measurements)
** Current wind speed in m/s (hover to see current wind gust speed)